Time;durP1;ratioP1;P1;durP2;ratioP2;P2;SDS_P1;SDS_P2;PMS_P1;PMS_P2;Temp;Humidity;BMP_temperature;BMP_pressure;BME280_temperature;BME280_humidity;BME280_pressure;Samples;Min_cycle;Max_cycle;Signal;HPM_P1;HPM_P2
2022/10/21 00:00:31;;;;;;;13.90;4.78;;;;;;;6.88;70.42;101456.56;2072756;28;20292;-70
2022/10/21 00:01:36;;;;;;;7.65;3.85;;;;;;;6.85;70.26;101465.06;2072809;28;20605;-71
2022/10/21 00:02:38;;;;;;;7.90;4.10;;;;;;;6.86;70.29;101450.63;2073753;28;20284;-71
2022/10/21 00:03:41;;;;;;;10.30;4.38;;;;;;;6.87;70.05;101456.78;2064568;28;20336;-70
2022/10/21 00:04:43;;;;;;;9.27;4.32;;;;;;;6.86;70.18;101450.63;2065140;28;20285;-71
2022/10/21 00:05:46;;;;;;;10.57;4.25;;;;;;;6.87;70.15;101451.44;2073023;28;20284;-70
2022/10/21 00:06:50;;;;;;;6.95;3.80;;;;;;;6.88;70.31;101447.75;2064348;28;20290;-71
2022/10/21 00:07:52;;;;;;;13.27;4.30;;;;;;;6.88;70.27;101447.75;2057227;28;20300;-70
2022/10/21 00:08:54;;;;;;;7.90;4.03;;;;;;;6.89;70.21;101436.00;2057364;28;20278;-71
2022/10/21 00:09:57;;;;;;;8.02;3.85;;;;;;;6.87;70.19;101441.59;2073086;28;20276;-70
2022/10/21 00:11:01;;;;;;;6.90;4.00;;;;;;;6.87;70.05;101435.41;2056877;28;20290;-71
2022/10/21 00:12:06;;;;;;;9.40;4.45;;;;;;;6.88;69.93;101439.72;2057872;28;20278;-70
2022/10/21 00:13:12;;;;;;;14.63;4.97;;;;;;;6.87;70.42;101432.72;2073306;28;20637;-70
2022/10/21 00:14:16;;;;;;;13.13;4.20;;;;;;;6.87;70.22;101430.06;2066532;28;20281;-70
2022/10/21 00:15:21;;;;;;;7.55;4.30;;;;;;;6.86;70.11;101433.78;2066473;28;20289;-69
2022/10/21 00:16:28;;;;;;;18.60;4.30;;;;;;;6.86;70.32;101433.78;2060952;28;20290;-69
2022/10/21 00:17:41;;;;;;;7.72;3.72;;;;;;;6.85;70.14;101432.16;2065844;28;20301;-69
2022/10/21 00:18:48;;;;;;;9.52;4.03;;;;;;;6.83;70.00;101419.03;2065689;28;20046;-71
2022/10/21 00:19:53;;;;;;;8.32;3.72;;;;;;;6.82;70.43;101427.28;2058980;28;20285;-69
2022/10/21 00:20:55;;;;;;;10.65;4.10;;;;;;;6.81;70.27;101425.63;2057776;28;20290;-69
2022/10/21 00:22:00;;;;;;;12.43;4.28;;;;;;;6.78;70.20;101412.75;2057427;28;20298;-69
2022/10/21 00:23:03;;;;;;;13.98;4.35;;;;;;;6.77;70.21;101408.44;2058450;28;20290;-69
2022/10/21 00:24:09;;;;;;;11.50;3.45;;;;;;;6.74;70.35;101402.50;2073193;28;20284;-69
2022/10/21 00:25:14;;;;;;;10.52;4.22;;;;;;;6.74;70.26;101399.03;2065558;28;20781;-69
2022/10/21 00:26:22;;;;;;;11.23;4.22;;;;;;;6.72;70.64;101404.63;2066871;28;20289;-69
2022/10/21 00:27:23;;;;;;;7.15;3.90;;;;;;;6.70;70.62;101398.69;2065810;28;20288;-69
2022/10/21 00:28:31;;;;;;;10.93;4.35;;;;;;;6.70;70.65;101393.34;2064586;28;20681;-69
2022/10/21 00:29:39;;;;;;;7.20;3.75;;;;;;;6.68;70.89;101400.78;2064855;28;20290;-69
2022/10/21 00:30:45;;;;;;;7.60;4.30;;;;;;;6.63;70.65;101400.66;2064793;28;20286;-70
2022/10/21 00:31:51;;;;;;;8.77;4.10;;;;;;;6.62;70.58;101395.53;2057125;28;20462;-69
2022/10/21 00:32:57;;;;;;;11.48;3.97;;;;;;;6.60;70.78;101394.97;2064833;28;20627;-69
2022/10/21 00:34:03;;;;;;;8.82;3.72;;;;;;;6.60;70.92;101395.78;2065199;28;20320;-69
2022/10/21 00:35:06;;;;;;;12.27;3.50;;;;;;;6.60;70.92;101403.78;2072449;28;20296;-69
2022/10/21 00:36:15;;;;;;;9.70;3.90;;;;;;;6.59;71.01;101402.19;2072628;28;20287;-68
2022/10/21 00:37:18;;;;;;;9.50;3.88;;;;;;;6.59;70.94;101401.34;2056668;28;20304;-69
2022/10/21 00:38:20;;;;;;;10.05;3.75;;;;;;;6.58;71.09;101400.53;2041348;28;20834;-69
2022/10/21 00:39:26;;;;;;;9.15;4.55;;;;;;;6.55;70.97;101397.50;2058320;28;20301;-69
2022/10/21 00:40:28;;;;;;;8.55;4.47;;;;;;;6.53;71.06;101402.28;2072629;28;20299;-68
2022/10/21 00:41:32;;;;;;;13.13;4.63;;;;;;;6.53;71.40;101391.59;2073610;28;20292;-69
2022/10/21 00:42:39;;;;;;;8.98;4.70;;;;;;;6.53;71.31;101388.94;2073259;28;20288;-69
2022/10/21 00:43:55;;;;;;;11.38;4.60;;;;;;;6.50;71.33;101392.88;2066174;28;20369;-69
2022/10/21 00:45:04;;;;;;;9.32;4.30;;;;;;;6.49;71.24;101384.06;2068125;28;20765;-71
2022/10/21 00:46:07;;;;;;;26.88;5.22;;;;;;;6.50;71.21;101383.00;2066484;28;20816;-71
2022/10/21 00:47:20;;;;;;;9.55;4.75;;;;;;;6.48;71.52;101384.25;2065785;28;20778;-70
2022/10/21 00:48:56;;;;;;;9.77;4.28;;;;;;;6.46;71.50;101379.16;2075075;28;20289;-70
2022/10/21 00:50:02;;;;;;;9.38;4.63;;;;;;;6.44;71.19;101378.56;2073803;28;20296;-70
2022/10/21 00:51:13;;;;;;;9.57;4.40;;;;;;;6.39;71.69;101369.63;2064841;28;20289;-70
2022/10/21 00:52:21;;;;;;;8.32;4.00;;;;;;;6.37;71.61;101377.03;2066717;28;20288;-70
2022/10/21 00:53:33;;;;;;;9.82;4.15;;;;;;;6.37;71.51;101371.69;2073662;28;20273;-70
2022/10/21 00:54:40;;;;;;;10.07;4.30;;;;;;;6.37;71.38;101369.03;2074287;28;20291;-70
2022/10/21 00:55:48;;;;;;;8.20;3.85;;;;;;;6.35;71.61;101363.13;2065506;28;20042;-70
2022/10/21 00:56:55;;;;;;;12.52;4.43;;;;;;;6.34;71.69;101353.50;2050918;28;20779;-70
2022/10/21 00:58:02;;;;;;;8.45;3.90;;;;;;;6.31;72.05;101349.41;2058115;28;20282;-70
2022/10/21 00:59:06;;;;;;;9.55;4.43;;;;;;;6.29;71.71;101348.81;2065304;28;20849;-70
2022/10/21 01:00:14;;;;;;;9.05;3.92;;;;;;;6.25;71.97;101337.78;2064787;28;20296;-70
2022/10/21 01:01:18;;;;;;;8.50;4.32;;;;;;;6.21;71.68;101347.31;2071552;28;20294;-70
2022/10/21 01:02:21;;;;;;;11.25;4.57;;;;;;;6.18;72.19;101337.09;2073281;28;20033;-70
2022/10/21 01:03:28;;;;;;;11.05;4.22;;;;;;;6.17;71.88;101340.78;2072701;28;20283;-71
2022/10/21 01:04:33;;;;;;;10.23;4.32;;;;;;;6.16;72.32;101341.03;2065653;28;20296;-70
2022/10/21 01:05:39;;;;;;;11.05;4.90;;;;;;;6.13;72.42;101328.94;2064485;28;20281;-70
2022/10/21 01:06:44;;;;;;;12.32;5.57;;;;;;;6.12;72.48;101342.53;2064757;28;21076;-70
2022/10/21 01:07:49;;;;;;;8.98;3.85;;;;;;;6.10;72.56;101329.41;2064695;28;20281;-70
2022/10/21 01:08:53;;;;;;;10.27;4.57;;;;;;;6.08;72.55;101331.47;2057049;28;20654;-70
2022/10/21 01:10:01;;;;;;;10.10;4.90;;;;;;;6.05;72.50;101321.25;2059375;28;20293;-70
2022/10/21 01:11:05;;;;;;;9.65;4.55;;;;;;;6.03;72.71;101329.50;2058067;28;20294;-71
2022/10/21 01:12:32;;;;;;;9.02;3.92;;;;;;;6.02;72.54;101321.72;2066361;28;20278;-71
2022/10/21 01:13:39;;;;;;;9.98;4.35;;;;;;;5.95;72.94;101323.69;2073133;28;20711;-71
2022/10/21 01:14:59;;;;;;;11.18;4.35;;;;;;;5.94;72.72;101322.06;2073313;28;20056;-71
2022/10/21 01:16:14;;;;;;;11.63;4.50;;;;;;;5.93;73.11;101323.13;2065001;28;20277;-70
2022/10/21 01:17:32;;;;;;;6.97;4.07;;;;;;;5.92;72.84;101327.59;2065785;28;20049;-70
2022/10/21 01:18:36;;;;;;;8.70;4.22;;;;;;;5.90;73.05;101312.88;2067712;28;20290;-71
2022/10/21 01:19:54;;;;;;;8.60;4.32;;;;;;;5.88;73.20;101326.41;2066053;28;20426;-71
2022/10/21 01:21:06;;;;;;;8.82;4.35;;;;;;;5.84;73.24;101314.59;2067816;28;20301;-70
2022/10/21 01:22:29;;;;;;;9.80;4.60;;;;;;;5.82;73.29;101322.00;2066779;28;20293;-70
2022/10/21 01:24:14;;;;;;;11.05;4.43;;;;;;;5.79;73.86;101311.78;2072522;28;20723;-70
2022/10/21 01:25:47;;;;;;;12.95;4.20;;;;;;;5.76;73.86;101307.69;2086886;28;20275;-71
2022/10/21 01:27:07;;;;;;;9.95;4.75;;;;;;;5.73;74.22;101310.81;2081386;28;20298;-70
2022/10/21 01:28:31;;;;;;;9.10;4.60;;;;;;;5.68;74.40;101313.38;2074768;28;20281;-71
2022/10/21 01:29:53;;;;;;;10.35;4.90;;;;;;;5.65;74.23;101289.81;2075488;28;20334;-71
2022/10/21 01:30:56;;;;;;;11.10;4.93;;;;;;;5.64;74.45;101293.50;2083294;28;20770;-71
2022/10/21 01:32:10;;;;;;;9.25;4.68;;;;;;;5.62;74.44;101295.63;2075473;28;20305;-71
2022/10/21 01:33:41;;;;;;;11.82;4.80;;;;;;;5.60;74.53;101303.03;2057945;28;20310;-71
2022/10/21 01:35:08;;;;;;;13.43;5.35;;;;;;;5.60;74.02;101296.88;2068881;28;20272;-70
2022/10/21 01:36:24;;;;;;;10.00;4.50;;;;;;;5.59;74.13;101296.06;2073133;28;20371;-71
2022/10/21 01:37:46;;;;;;;7.75;4.25;;;;;;;5.57;74.12;101303.47;2073093;28;20281;-70
2022/10/21 01:38:58;;;;;;;7.97;4.50;;;;;;;5.55;74.17;101293.03;2064241;28;20301;-71
2022/10/21 01:40:10;;;;;;;9.68;5.00;;;;;;;5.53;74.01;101294.31;2067257;28;20336;-71
2022/10/21 01:41:27;;;;;;;10.63;4.60;;;;;;;5.49;74.67;101291.28;2072749;28;20292;-70
2022/10/21 01:42:41;;;;;;;8.25;4.32;;;;;;;5.50;74.26;101308.91;2072791;28;20305;-70
2022/10/21 01:44:11;;;;;;;10.68;5.20;;;;;;;5.50;74.66;101298.22;2064164;28;20285;-70
2022/10/21 01:45:25;;;;;;;12.90;5.10;;;;;;;5.48;74.36;101299.50;2065241;28;20704;-71
2022/10/21 01:46:49;;;;;;;12.32;5.57;;;;;;;5.48;74.75;101286.16;2066782;28;20289;-70
2022/10/21 01:48:00;;;;;;;11.75;5.38;;;;;;;5.44;74.26;101283.13;2073161;28;20292;-70
2022/10/21 01:49:27;;;;;;;10.82;5.40;;;;;;;5.43;74.92;101291.38;2073278;28;20808;-70
2022/10/21 01:50:33;;;;;;;11.18;5.40;;;;;;;5.42;74.44;101290.53;2076904;28;20296;-70
2022/10/21 01:51:38;;;;;;;12.55;5.47;;;;;;;5.42;74.45;101297.72;2065266;28;20328;-70
2022/10/21 01:52:48;;;;;;;12.48;5.97;;;;;;;5.41;74.71;101285.44;2058304;28;20674;-70
2022/10/21 01:54:06;;;;;;;10.02;4.63;;;;;;;5.41;74.80;101293.44;2058211;28;20301;-70
2022/10/21 01:55:17;;;;;;;13.48;5.50;;;;;;;5.38;74.91;101291.22;2067566;28;20273;-70
2022/10/21 01:56:26;;;;;;;13.77;5.40;;;;;;;5.38;74.68;101281.38;2058934;28;20290;-70
2022/10/21 01:57:40;;;;;;;11.57;5.03;;;;;;;5.34;74.88;101282.88;2059219;28;20282;-70
2022/10/21 01:58:46;;;;;;;14.30;5.43;;;;;;;5.33;74.90;101278.59;2064036;28;20294;-70
2022/10/21 01:59:52;;;;;;;11.32;5.55;;;;;;;5.34;75.00;101289.00;2064390;28;20286;-70
2022/10/21 02:00:58;;;;;;;12.65;5.82;;;;;;;5.35;74.96;101289.81;2072440;28;20285;-70
2022/10/21 02:02:08;;;;;;;12.88;5.13;;;;;;;5.34;74.84;101282.88;2070846;28;20725;-70
2022/10/21 02:03:15;;;;;;;;;;;;;;;5.33;75.48;101281.25;2072231;28;20276;-71
2022/10/21 02:04:20;;;;;;;10.40;5.25;;;;;;;5.31;74.78;101276.13;2072162;28;19913;-71
2022/10/21 02:05:32;;;;;;;10.77;5.38;;;;;;;5.28;74.91;101271.25;2057077;28;20665;-70
2022/10/21 02:06:37;;;;;;;12.05;4.85;;;;;;;5.27;75.17;101274.16;2058791;28;20286;-71
2022/10/21 02:07:43;;;;;;;11.63;5.10;;;;;;;5.27;75.36;101274.97;2056828;28;20294;-70
2022/10/21 02:08:45;;;;;;;11.57;5.30;;;;;;;5.26;75.03;101264.50;2048754;28;20827;-71
2022/10/21 02:09:48;;;;;;;13.52;5.15;;;;;;;5.23;75.65;101271.13;2063808;28;20301;-71
2022/10/21 02:11:03;;;;;;;14.35;5.53;;;;;;;5.22;75.41;101274.00;2071716;28;20898;-70
2022/10/21 02:12:09;;;;;;;10.25;5.07;;;;;;;5.22;75.35;101269.47;2066102;28;20293;-70
2022/10/21 02:13:21;;;;;;;10.57;5.30;;;;;;;5.19;75.78;101269.94;2056453;28;20290;-70
2022/10/21 02:14:42;;;;;;;8.68;4.00;;;;;;;5.21;75.23;101267.84;2065730;28;20289;-70
2022/10/21 02:15:47;;;;;;;11.68;4.82;;;;;;;5.18;75.98;101262.97;2057220;28;20809;-71
2022/10/21 02:16:54;;;;;;;17.60;5.97;;;;;;;5.21;75.35;101264.38;2057228;28;20039;-71
2022/10/21 02:18:06;;;;;;;12.45;5.18;;;;;;;5.22;75.34;101256.16;2073482;28;20276;-71
2022/10/21 02:19:16;;;;;;;12.07;5.85;;;;;;;5.23;75.43;101257.78;2073178;28;20045;-70
2022/10/21 02:20:23;;;;;;;12.82;4.47;;;;;;;5.21;75.56;101251.88;2066430;28;20030;-71
2022/10/21 02:21:30;;;;;;;13.18;5.88;;;;;;;5.19;76.00;101269.94;2065970;28;20058;-70
2022/10/21 02:22:37;;;;;;;12.20;5.60;;;;;;;5.17;75.92;101258.69;2072953;28;20284;-70
2022/10/21 02:23:54;;;;;;;15.50;5.28;;;;;;;5.15;75.82;101250.09;2057842;28;20309;-70
2022/10/21 02:25:04;;;;;;;13.55;5.50;;;;;;;5.15;75.63;101258.09;2067205;28;20290;-71
2022/10/21 02:26:07;;;;;;;10.88;4.65;;;;;;;5.15;75.69;101255.44;2066229;28;20297;-70
2022/10/21 02:27:16;;;;;;;10.57;4.53;;;;;;;5.16;75.96;101270.38;2072799;28;20041;-70
2022/10/21 02:28:22;;;;;;;16.05;4.88;;;;;;;5.17;75.78;101256.03;2073668;28;20284;-70
2022/10/21 02:29:31;;;;;;;10.80;4.35;;;;;;;5.14;75.74;101261.81;2072333;28;20296;-70
2022/10/21 02:30:52;;;;;;;9.98;4.32;;;;;;;5.14;76.06;101256.47;2072015;28;20638;-70
2022/10/21 02:32:05;;;;;;;8.93;4.97;;;;;;;5.12;75.46;101247.88;2066388;28;20053;-70
2022/10/21 02:33:15;;;;;;;14.85;5.60;;;;;;;5.11;75.94;101252.41;2071978;28;20307;-70
2022/10/21 02:35:00;;;;;;;10.48;5.18;;;;;;;5.13;75.42;101248.69;2072606;28;20296;-69
2022/10/21 02:36:11;;;;;;;8.82;4.40;;;;;;;5.14;75.34;101239.66;2039455;29;20291;-70
2022/10/21 02:37:28;;;;;;;10.70;5.15;;;;;;;5.15;75.81;101239.44;2040133;29;20299;-69
2022/10/21 02:39:02;;;;;;;9.30;5.00;;;;;;;5.18;75.56;101235.50;2062696;28;20304;-69
2022/10/21 02:40:07;;;;;;;10.82;4.72;;;;;;;5.19;75.33;101229.94;2058318;28;20293;-69
2022/10/21 02:41:17;;;;;;;12.57;4.63;;;;;;;5.20;75.50;101234.25;2064738;28;20281;-69
2022/10/21 02:42:27;;;;;;;10.50;5.28;;;;;;;5.20;75.03;101230.75;2064404;28;20297;-69
2022/10/21 02:43:37;;;;;;;12.50;4.95;;;;;;;5.19;75.22;101227.28;2066085;28;20289;-69
2022/10/21 02:44:41;;;;;;;10.73;4.80;;;;;;;5.20;75.37;101228.91;2058504;28;20290;-69
2022/10/21 02:45:47;;;;;;;12.70;5.22;;;;;;;5.22;74.84;101234.00;2065198;28;20057;-69
2022/10/21 02:46:55;;;;;;;10.45;5.05;;;;;;;5.20;74.95;101228.91;2080766;28;20299;-70
2022/10/21 02:48:00;;;;;;;10.23;4.50;;;;;;;5.20;74.90;101228.09;2078078;28;20048;-70
2022/10/21 02:49:06;;;;;;;10.10;4.82;;;;;;;5.22;74.99;101237.50;2065054;28;20781;-70
2022/10/21 02:50:13;;;;;;;12.75;5.35;;;;;;;5.23;75.40;101235.63;2058742;28;20297;-70
2022/10/21 02:51:18;;;;;;;20.23;5.70;;;;;;;5.25;75.21;101236.22;2057551;28;21005;-70
2022/10/21 02:52:20;;;;;;;9.80;5.18;;;;;;;5.25;75.43;101234.38;2057677;28;20690;-70
2022/10/21 02:53:27;;;;;;;13.40;5.00;;;;;;;5.24;75.46;101229.28;2073417;28;20285;-70
2022/10/21 02:54:32;;;;;;;13.43;5.05;;;;;;;5.25;75.74;101237.03;2073026;28;20293;-70
2022/10/21 02:55:35;;;;;;;14.95;5.53;;;;;;;5.26;75.55;101222.66;2073027;28;20809;-70
2022/10/21 02:56:41;;;;;;;10.50;5.20;;;;;;;5.26;75.64;101224.50;2072968;28;20808;-70
2022/10/21 02:57:47;;;;;;;12.60;5.68;;;;;;;5.26;76.09;101229.84;2073441;28;20757;-69
2022/10/21 02:58:52;;;;;;;8.73;4.32;;;;;;;5.26;75.88;101228.00;2064795;28;20797;-70
2022/10/21 02:59:54;;;;;;;11.45;4.65;;;;;;;5.28;75.47;101225.09;2049449;28;20306;-70
2022/10/21 03:00:57;;;;;;;12.05;5.72;;;;;;;5.29;75.98;101216.06;2056268;28;20337;-71
2022/10/21 03:02:01;;;;;;;10.70;5.40;;;;;;;5.31;75.85;101214.00;2071548;28;20673;-71
2022/10/21 03:03:03;;;;;;;9.57;4.90;;;;;;;5.31;75.86;101222.81;2070758;28;20764;-70
2022/10/21 03:04:09;;;;;;;11.95;4.53;;;;;;;5.33;75.69;101218.06;2064230;28;20297;-71
2022/10/21 03:05:17;;;;;;;13.15;5.40;;;;;;;5.30;76.11;101207.84;2064331;28;20289;-71
2022/10/21 03:06:19;;;;;;;10.98;4.53;;;;;;;5.33;75.35;101211.91;2058132;28;20746;-71
2022/10/21 03:07:22;;;;;;;8.15;4.18;;;;;;;5.33;75.83;101207.41;2057905;28;20305;-70
2022/10/21 03:08:29;;;;;;;12.82;5.20;;;;;;;5.35;75.51;101210.63;2073560;28;20288;-71
2022/10/21 03:09:40;;;;;;;10.00;4.93;;;;;;;5.35;75.21;101215.97;2074144;28;20297;-70
2022/10/21 03:10:42;;;;;;;12.20;4.80;;;;;;;5.35;74.97;101209.81;2073183;28;20303;-69
2022/10/21 03:11:45;;;;;;;9.80;4.72;;;;;;;5.37;75.56;101201.59;2065555;28;20301;-70
2022/10/21 03:12:52;;;;;;;10.35;4.28;;;;;;;5.36;75.38;101195.47;2073440;28;20289;-71
2022/10/21 03:13:54;;;;;;;9.52;4.43;;;;;;;5.35;75.33;101186.63;2066581;28;20297;-70
2022/10/21 03:14:56;;;;;;;12.20;4.60;;;;;;;5.37;74.74;101189.09;2066661;28;20404;-70
2022/10/21 03:16:01;;;;;;;13.43;5.20;;;;;;;5.39;74.96;101188.84;2074164;28;20285;-70
2022/10/21 03:17:07;;;;;;;13.25;4.47;;;;;;;5.40;74.84;101175.28;2066314;28;20797;-71
2022/10/21 03:18:09;;;;;;;10.88;3.25;;;;;;;5.41;74.43;101186.78;2065712;28;20682;-71
2022/10/21 03:19:14;;;;;;;7.65;3.80;;;;;;;5.41;74.29;101189.44;2067076;28;20273;-71
2022/10/21 03:20:23;;;;;;;8.40;4.47;;;;;;;5.42;73.73;101185.72;2074288;28;20273;-71
2022/10/21 03:21:26;;;;;;;6.93;3.88;;;;;;;5.43;73.53;101195.38;2075125;28;20288;-72
2022/10/21 03:22:29;;;;;;;11.25;4.70;;;;;;;5.41;73.26;101192.91;2074562;28;20292;-71
2022/10/21 03:23:32;;;;;;;10.77;4.63;;;;;;;5.42;73.69;101201.72;2074484;28;20295;-71
2022/10/21 03:24:38;;;;;;;11.80;4.57;;;;;;;5.44;73.00;101191.66;2073607;28;20284;-71
2022/10/21 03:25:42;;;;;;;6.82;4.20;;;;;;;5.44;73.15;101194.31;2074782;28;20307;-69
2022/10/21 03:26:45;;;;;;;8.82;4.93;;;;;;;5.45;73.29;101182.59;2081408;28;20291;-70
2022/10/21 03:27:49;;;;;;;10.38;4.53;;;;;;;5.47;72.75;101180.53;2074415;28;20790;-70
2022/10/21 03:28:51;;;;;;;8.50;4.20;;;;;;;5.49;72.73;101181.94;2066277;28;20297;-70
2022/10/21 03:29:54;;;;;;;11.32;4.05;;;;;;;5.48;72.29;101168.81;2057850;28;20306;-70
2022/10/21 03:30:56;;;;;;;7.97;4.30;;;;;;;5.47;72.07;101175.19;2057840;28;20298;-69
2022/10/21 03:32:01;;;;;;;10.65;4.65;;;;;;;5.48;72.10;101158.94;2073221;28;20296;-69
2022/10/21 03:33:05;;;;;;;13.23;3.80;;;;;;;5.49;72.28;101162.44;2072997;28;20285;-69
2022/10/21 03:34:07;;;;;;;9.07;4.10;;;;;;;5.48;71.82;101152.81;2073313;28;20300;-69
2022/10/21 03:35:13;;;;;;;9.25;4.10;;;;;;;5.49;71.48;101160.59;2072776;28;20281;-69
2022/10/21 03:36:17;;;;;;;11.05;4.22;;;;;;;5.50;71.48;101158.72;2065041;28;20792;-70
2022/10/21 03:37:26;;;;;;;10.43;4.35;;;;;;;5.50;71.60;101161.41;2066262;28;20296;-69
2022/10/21 03:38:32;;;;;;;6.85;3.35;;;;;;;5.51;70.95;101155.00;2073308;28;20288;-69
2022/10/21 03:39:37;;;;;;;8.75;4.25;;;;;;;5.51;71.21;101165.69;2065295;28;20300;-69
2022/10/21 03:40:43;;;;;;;13.75;4.32;;;;;;;5.50;70.88;101170.19;2065590;28;20282;-70
2022/10/21 03:41:49;;;;;;;9.77;4.53;;;;;;;5.48;71.13;101166.13;2072828;28;20284;-70
2022/10/21 03:42:51;;;;;;;9.70;3.53;;;;;;;5.45;71.08;101169.25;2065218;28;20828;-70
2022/10/21 03:43:58;;;;;;;7.95;3.88;;;;;;;5.42;71.03;101173.19;2057841;28;20302;-69
2022/10/21 03:45:02;;;;;;;9.60;4.90;;;;;;;5.42;71.18;101183.84;2057367;28;20820;-70
2022/10/21 03:46:05;;;;;;;9.10;4.03;;;;;;;5.43;71.14;101174.03;2058105;28;20297;-70
2022/10/21 03:47:08;;;;;;;12.93;4.78;;;;;;;5.43;71.00;101169.50;2065795;28;20770;-70
2022/10/21 03:48:14;;;;;;;9.98;4.15;;;;;;;5.43;71.63;101174.84;2057092;28;20301;-70
2022/10/21 03:49:17;;;;;;;11.55;4.00;;;;;;;5.42;71.33;101170.53;2058796;28;20670;-70
2022/10/21 03:50:19;;;;;;;9.30;4.85;;;;;;;5.42;71.25;101173.19;2058313;28;20678;-70
2022/10/21 03:51:22;;;;;;;8.52;4.45;;;;;;;5.42;71.73;101177.72;2050458;28;20314;-70
2022/10/21 03:52:26;;;;;;;12.15;4.60;;;;;;;5.42;71.67;101177.72;2057905;28;20299;-70
2022/10/21 03:53:36;;;;;;;9.45;4.30;;;;;;;5.40;71.46;101179.81;2065594;28;20380;-70
2022/10/21 03:54:42;;;;;;;16.15;4.53;;;;;;;5.39;71.57;101175.50;2065724;28;20378;-70
2022/10/21 03:55:50;;;;;;;14.63;4.38;;;;;;;5.37;71.54;101164.28;2072221;28;20292;-70
2022/10/21 03:56:53;;;;;;;11.23;4.75;;;;;;;5.34;71.90;101169.00;2073875;28;20303;-70
2022/10/21 03:57:58;;;;;;;12.45;3.95;;;;;;;5.34;71.32;101170.88;2074279;28;20352;-70
2022/10/21 03:59:06;;;;;;;14.40;4.65;;;;;;;5.32;71.44;101163.09;2066215;28;20796;-70
2022/10/21 04:00:14;;;;;;;24.50;4.78;;;;;;;5.34;71.32;101169.00;2067390;28;20308;-71
2022/10/21 04:01:23;;;;;;;9.43;4.15;;;;;;;5.33;71.56;101164.72;2073613;28;20307;-70
2022/10/21 04:02:31;;;;;;;9.90;4.20;;;;;;;5.32;71.04;101157.75;2073846;28;20292;-69
2022/10/21 04:03:34;;;;;;;12.52;4.60;;;;;;;5.33;71.09;101158.59;2077421;28;20330;-69
2022/10/21 04:04:37;;;;;;;10.57;4.43;;;;;;;5.31;71.34;101155.34;2076699;28;20276;-70
2022/10/21 04:05:39;;;;;;;10.57;4.13;;;;;;;5.30;70.78;101153.72;2060542;28;20296;-69
2022/10/21 04:06:47;;;;;;;14.07;5.22;;;;;;;5.30;70.75;101164.38;2061416;28;20282;-70
2022/10/21 04:07:52;;;;;;;11.05;4.20;;;;;;;5.29;70.89;101163.53;2061867;28;20301;-69
2022/10/21 04:08:57;;;;;;;12.05;4.57;;;;;;;5.29;71.19;101160.06;2060260;28;20274;-69
2022/10/21 04:10:02;;;;;;;7.15;3.40;;;;;;;5.28;70.84;101172.59;2084525;28;20299;-69
2022/10/21 04:11:09;;;;;;;11.10;5.18;;;;;;;5.27;70.73;101165.66;2085156;28;20354;-69
2022/10/21 04:12:15;;;;;;;10.07;4.20;;;;;;;5.27;71.07;101156.84;2075933;28;20340;-70
2022/10/21 04:13:17;;;;;;;9.95;4.70;;;;;;;5.26;70.62;101161.34;2077318;28;20292;-68
2022/10/21 04:14:22;;;;;;;16.08;4.93;;;;;;;5.25;71.00;101151.72;2076925;28;20384;-67
2022/10/21 04:15:28;;;;;;;10.43;4.50;;;;;;;5.26;70.62;101164.00;2073164;28;20307;-70
2022/10/21 04:16:33;;;;;;;8.63;4.00;;;;;;;5.25;71.07;101151.72;2085317;28;20295;-68
2022/10/21 04:17:46;;;;;;;8.15;4.00;;;;;;;5.25;70.20;101157.06;2066771;28;20786;-70
2022/10/21 04:18:50;;;;;;;9.52;3.90;;;;;;;5.26;70.11;101161.34;2061007;28;20308;-70
2022/10/21 04:19:56;;;;;;;9.18;3.88;;;;;;;5.28;70.24;101163.78;2073860;28;20285;-70
2022/10/21 04:20:58;;;;;;;11.40;4.20;;;;;;;5.29;69.90;101152.06;2077188;28;20284;-70
2022/10/21 04:22:04;;;;;;;7.40;4.30;;;;;;;5.29;69.32;101144.88;2069225;28;20281;-70
2022/10/21 04:23:13;;;;;;;14.25;4.68;;;;;;;5.27;69.51;101141.66;2076050;28;20354;-71
2022/10/21 04:24:16;;;;;;;10.80;4.90;;;;;;;5.28;69.85;101129.94;2072881;28;20308;-70
2022/10/21 04:25:18;;;;;;;9.20;4.40;;;;;;;5.29;69.41;101136.88;2060159;28;20289;-70
2022/10/21 04:26:24;;;;;;;9.40;4.13;;;;;;;5.29;69.13;101131.53;2068786;28;20289;-70
2022/10/21 04:27:29;;;;;;;11.60;4.60;;;;;;;5.29;69.03;101128.88;2068495;28;20773;-69
2022/10/21 04:28:33;;;;;;;10.80;4.32;;;;;;;5.30;69.29;101132.38;2076900;28;20369;-69
2022/10/21 04:29:42;;;;;;;10.65;4.28;;;;;;;5.30;69.14;101119.88;2075118;28;20311;-70
2022/10/21 04:30:51;;;;;;;13.13;4.68;;;;;;;5.31;68.83;101134.00;2074140;28;20315;-69
2022/10/21 04:31:53;;;;;;;8.40;4.00;;;;;;;5.29;69.13;101130.75;2072906;28;20293;-69
2022/10/21 04:32:55;;;;;;;9.38;4.63;;;;;;;5.27;68.63;101128.31;2075456;28;20296;-69
2022/10/21 04:34:00;;;;;;;10.55;4.22;;;;;;;5.26;68.52;101124.00;2049271;28;20441;-69
2022/10/21 04:35:05;;;;;;;12.25;4.45;;;;;;;5.26;68.44;101128.53;2060582;28;20290;-69
2022/10/21 04:36:11;;;;;;;10.25;4.22;;;;;;;5.25;68.85;101130.38;2073837;28;20296;-68
2022/10/21 04:37:17;;;;;;;11.52;4.80;;;;;;;5.23;68.93;101127.16;2068741;28;20292;-70
2022/10/21 04:38:23;;;;;;;11.68;4.22;;;;;;;5.21;68.60;101134.56;2071931;28;20863;-68
2022/10/21 04:39:24;;;;;;;8.52;3.92;;;;;;;5.17;68.57;101130.75;2079369;28;20655;-70
2022/10/21 04:40:29;;;;;;;11.27;4.28;;;;;;;5.18;68.69;101120.88;2071748;28;20300;-69
2022/10/21 04:41:31;;;;;;;8.23;4.15;;;;;;;5.17;68.49;101122.75;2071140;28;20318;-69
2022/10/21 04:42:34;;;;;;;9.32;4.00;;;;;;;5.16;68.85;101131.75;2079854;28;20299;-68
2022/10/21 04:43:36;;;;;;;8.85;4.13;;;;;;;5.17;69.30;101127.22;2071555;28;20301;-70
2022/10/21 04:44:40;;;;;;;9.50;4.38;;;;;;;5.17;69.25;101113.91;2063797;28;20773;-70
2022/10/21 04:45:46;;;;;;;9.40;4.18;;;;;;;5.15;68.78;101108.81;2070796;28;20296;-69
2022/10/21 04:46:53;;;;;;;15.40;5.05;;;;;;;5.13;69.43;101100.22;2063211;28;20304;-70
2022/10/21 04:47:59;;;;;;;11.88;4.47;;;;;;;5.11;69.08;101097.00;2056954;28;20301;-70
2022/10/21 04:49:04;;;;;;;14.80;5.03;;;;;;;5.12;69.17;101103.94;2075740;28;20298;-70
2022/10/21 04:50:10;;;;;;;10.02;4.57;;;;;;;5.11;69.64;101097.81;2080847;28;20276;-69
2022/10/21 04:51:12;;;;;;;13.52;4.50;;;;;;;5.09;69.21;101101.72;2079859;28;20299;-70
2022/10/21 04:52:17;;;;;;;11.35;4.45;;;;;;;5.09;69.53;101096.41;2080682;28;20296;-70
2022/10/21 04:53:23;;;;;;;12.38;5.68;;;;;;;5.08;69.35;101086.78;2072805;28;20285;-69
2022/10/21 04:54:25;;;;;;;11.55;4.95;;;;;;;5.08;69.15;101081.47;2072239;28;20300;-70
2022/10/21 04:55:29;;;;;;;14.65;4.95;;;;;;;5.07;69.47;101079.81;2072406;28;20327;-69
2022/10/21 04:56:31;;;;;;;11.15;4.90;;;;;;;5.05;69.49;101081.91;2064201;28;20376;-70
2022/10/21 04:57:41;;;;;;;9.68;4.55;;;;;;;5.02;69.34;101077.03;2064724;28;20286;-71
2022/10/21 04:58:47;;;;;;;11.45;5.25;;;;;;;5.00;69.64;101079.13;2080278;28;20284;-79
2022/10/21 04:59:52;;;;;;;10.80;4.90;;;;;;;4.99;70.26;101074.84;2081036;28;20056;-71
2022/10/21 05:00:58;;;;;;;9.85;4.82;;;;;;;4.98;70.17;101081.19;2080520;28;20273;-71
2022/10/21 05:02:01;;;;;;;10.43;4.53;;;;;;;4.96;69.79;101076.09;2071910;28;20281;-71
2022/10/21 05:03:04;;;;;;;15.55;5.10;;;;;;;4.93;70.10;101079.22;2071419;28;20308;-71
2022/10/21 05:04:06;;;;;;;13.82;5.10;;;;;;;4.92;70.12;101071.44;2072463;28;20787;-71
2022/10/21 05:05:12;;;;;;;11.70;5.57;;;;;;;4.91;70.04;101075.97;2055370;28;20828;-71
2022/10/21 05:06:21;;;;;;;12.52;5.75;;;;;;;4.90;70.59;101065.53;2064055;28;20955;-71
2022/10/21 05:07:24;;;;;;;12.10;5.15;;;;;;;4.91;70.73;101070.63;2063481;28;20309;-71
2022/10/21 05:08:28;;;;;;;10.60;5.45;;;;;;;4.92;70.48;101074.09;2055891;28;20294;-71
2022/10/21 05:09:33;;;;;;;12.48;4.60;;;;;;;4.91;70.71;101069.81;2071217;28;20296;-71
2022/10/21 05:10:36;;;;;;;13.43;5.68;;;;;;;4.90;70.38;101069.00;2065413;28;20297;-71
2022/10/21 05:11:39;;;;;;;13.18;5.45;;;;;;;4.91;70.47;101064.50;2055587;28;20301;-71
2022/10/21 05:12:44;;;;;;;9.75;4.93;;;;;;;4.87;70.76;101062.28;2055311;28;20313;-71
2022/10/21 05:13:46;;;;;;;13.50;5.50;;;;;;;4.86;70.94;101058.00;2055638;28;20298;-72
2022/10/21 05:14:53;;;;;;;13.20;5.93;;;;;;;4.88;70.90;101049.78;2063367;28;20285;-73
2022/10/21 05:15:59;;;;;;;15.00;5.15;;;;;;;4.90;70.78;101057.56;2064426;28;20293;-72